sensor_id;sensor_type;location;lat;lon;timestamp;pressure;altitude;pressure_sealevel;temperature;humidity
41102;BME280;26845;50.190;19.178;2022-12-24T00:00:38;97629.95;;;5.04;98.58
41102;BME280;26845;50.190;19.178;2022-12-24T00:03:05;97636.64;;;5.00;98.51
41102;BME280;26845;50.190;19.178;2022-12-24T00:05:32;97635.94;;;4.94;98.46
41102;BME280;26845;50.190;19.178;2022-12-24T00:07:58;97636.70;;;4.84;97.53
41102;BME280;26845;50.190;19.178;2022-12-24T00:10:25;97631.95;;;4.76;97.60
41102;BME280;26845;50.190;19.178;2022-12-24T00:12:52;97634.66;;;4.64;97.18
41102;BME280;26845;50.190;19.178;2022-12-24T00:15:19;97630.82;;;4.49;97.21
41102;BME280;26845;50.190;19.178;2022-12-24T00:17:45;97625.49;;;4.41;97.37
41102;BME280;26845;50.190;19.178;2022-12-24T00:20:12;97619.81;;;4.35;97.51
41102;BME280;26845;50.190;19.178;2022-12-24T00:22:39;97619.32;;;4.33;97.66
41102;BME280;26845;50.190;19.178;2022-12-24T00:25:06;97610.45;;;4.36;97.90
41102;BME280;26845;50.190;19.178;2022-12-24T00:27:33;97603.02;;;4.37;97.76
41102;BME280;26845;50.190;19.178;2022-12-24T00:30:00;97598.32;;;4.37;97.74
41102;BME280;26845;50.190;19.178;2022-12-24T00:32:27;97604.91;;;4.39;97.78
41102;BME280;26845;50.190;19.178;2022-12-24T00:34:53;97602.35;;;4.42;98.13
41102;BME280;26845;50.190;19.178;2022-12-24T00:37:22;97594.05;;;4.45;98.23
41102;BME280;26845;50.190;19.178;2022-12-24T00:39:49;97581.30;;;4.49;98.25
41102;BME280;26845;50.190;19.178;2022-12-24T00:42:15;97567.44;;;4.54;98.24
41102;BME280;26845;50.190;19.178;2022-12-24T00:44:42;97565.30;;;4.51;98.04
41102;BME280;26845;50.190;19.178;2022-12-24T00:47:09;97571.05;;;4.52;98.03
41102;BME280;26845;50.190;19.178;2022-12-24T00:49:36;97571.61;;;4.51;98.07
41102;BME280;26845;50.190;19.178;2022-12-24T00:52:03;97567.95;;;4.56;98.21
41102;BME280;26845;50.190;19.178;2022-12-24T00:54:30;97556.89;;;4.59;98.32
41102;BME280;26845;50.190;19.178;2022-12-24T00:56:56;97553.20;;;4.63;98.36
41102;BME280;26845;50.190;19.178;2022-12-24T00:59:23;97555.19;;;4.60;98.08
41102;BME280;26845;50.190;19.178;2022-12-24T01:01:50;97550.02;;;4.59;98.06
41102;BME280;26845;50.190;19.178;2022-12-24T01:04:17;97553.25;;;4.61;98.19
41102;BME280;26845;50.190;19.178;2022-12-24T01:07:02;97556.33;;;4.59;98.18
41102;BME280;26845;50.190;19.178;2022-12-24T01:09:29;97562.13;;;4.58;97.76
41102;BME280;26845;50.190;19.178;2022-12-24T01:11:56;97564.89;;;4.44;97.32
41102;BME280;26845;50.190;19.178;2022-12-24T01:14:23;97573.51;;;4.26;97.09
41102;BME280;26845;50.190;19.178;2022-12-24T01:16:50;97577.99;;;4.08;97.19
41102;BME280;26845;50.190;19.178;2022-12-24T01:19:16;97576.31;;;3.96;97.43
41102;BME280;26845;50.190;19.178;2022-12-24T01:21:45;97575.47;;;3.95;98.01
41102;BME280;26845;50.190;19.178;2022-12-24T01:24:15;97577.03;;;4.01;98.46
41102;BME280;26845;50.190;19.178;2022-12-24T01:26:42;97573.25;;;4.11;98.76
41102;BME280;26845;50.190;19.178;2022-12-24T01:29:09;97568.67;;;4.20;98.94
41102;BME280;26845;50.190;19.178;2022-12-24T01:31:36;97559.80;;;4.23;98.27
41102;BME280;26845;50.190;19.178;2022-12-24T01:34:03;97572.45;;;4.24;98.21
41102;BME280;26845;50.190;19.178;2022-12-24T01:36:30;97576.68;;;4.19;97.96
41102;BME280;26845;50.190;19.178;2022-12-24T01:38:57;97579.77;;;4.15;97.89
41102;BME280;26845;50.190;19.178;2022-12-24T01:41:24;97578.65;;;4.02;97.65
41102;BME280;26845;50.190;19.178;2022-12-24T01:44:26;97581.69;;;4.01;97.90
41102;BME280;26845;50.190;19.178;2022-12-24T01:47:19;97573.76;;;3.99;98.30
41102;BME280;26845;50.190;19.178;2022-12-24T01:49:52;97573.62;;;4.07;98.60
41102;BME280;26845;50.190;19.178;2022-12-24T01:52:33;97567.39;;;4.15;98.67
41102;BME280;26845;50.190;19.178;2022-12-24T01:55:08;97573.83;;;4.24;98.72
41102;BME280;26845;50.190;19.178;2022-12-24T01:57:48;97576.16;;;4.31;98.87
41102;BME280;26845;50.190;19.178;2022-12-24T02:00:18;97563.69;;;4.36;98.69
41102;BME280;26845;50.190;19.178;2022-12-24T02:02:46;97554.77;;;4.42;98.63
41102;BME280;26845;50.190;19.178;2022-12-24T02:07:54;97547.42;;;4.51;98.68
41102;BME280;26845;50.190;19.178;2022-12-24T02:10:22;97549.73;;;4.58;98.86
41102;BME280;26845;50.190;19.178;2022-12-24T02:12:49;97557.89;;;4.63;98.76
41102;BME280;26845;50.190;19.178;2022-12-24T02:15:18;97555.09;;;4.65;98.54
41102;BME280;26845;50.190;19.178;2022-12-24T02:21:36;97553.92;;;4.55;98.03
41102;BME280;26845;50.190;19.178;2022-12-24T02:32:44;97562.78;;;4.27;97.54
41102;BME280;26845;50.190;19.178;2022-12-24T02:41:17;97546.61;;;4.09;98.50
41102;BME280;26845;50.190;19.178;2022-12-24T02:43:53;97552.27;;;4.15;98.64
41102;BME280;26845;50.190;19.178;2022-12-24T02:46:25;97546.33;;;4.11;98.13
41102;BME280;26845;50.190;19.178;2022-12-24T02:48:54;97539.25;;;4.07;98.73
41102;BME280;26845;50.190;19.178;2022-12-24T02:51:23;97543.62;;;4.08;99.16
41102;BME280;26845;50.190;19.178;2022-12-24T02:53:53;97533.86;;;4.16;99.39
41102;BME280;26845;50.190;19.178;2022-12-24T03:10:52;97559.00;;;4.37;100.00
41102;BME280;26845;50.190;19.178;2022-12-24T03:13:25;97561.03;;;4.31;99.55
41102;BME280;26845;50.190;19.178;2022-12-24T03:15:53;97568.72;;;4.32;99.96
41102;BME280;26845;50.190;19.178;2022-12-24T03:18:24;97570.20;;;4.40;100.00
41102;BME280;26845;50.190;19.178;2022-12-24T03:20:59;97583.70;;;4.39;100.00
41102;BME280;26845;50.190;19.178;2022-12-24T03:23:24;97580.80;;;4.47;100.00
41102;BME280;26845;50.190;19.178;2022-12-24T03:25:51;97575.64;;;4.43;100.00
41102;BME280;26845;50.190;19.178;2022-12-24T03:28:23;97588.89;;;4.41;100.00
41102;BME280;26845;50.190;19.178;2022-12-24T03:30:50;97588.45;;;4.50;100.00
41102;BME280;26845;50.190;19.178;2022-12-24T03:33:17;97595.37;;;4.61;100.00
41102;BME280;26845;50.190;19.178;2022-12-24T03:35:45;97578.67;;;4.69;100.00
41102;BME280;26845;50.190;19.178;2022-12-24T03:38:11;97579.89;;;4.77;100.00
41102;BME280;26845;50.190;19.178;2022-12-24T03:40:38;97587.29;;;4.79;100.00
41102;BME280;26845;50.190;19.178;2022-12-24T03:43:05;97585.78;;;4.84;100.00
41102;BME280;26845;50.190;19.178;2022-12-24T03:45:32;97594.82;;;4.87;100.00
41102;BME280;26845;50.190;19.178;2022-12-24T03:47:58;97591.17;;;4.89;100.00
41102;BME280;26845;50.190;19.178;2022-12-24T03:50:25;97589.50;;;4.90;100.00
41102;BME280;26845;50.190;19.178;2022-12-24T03:52:53;97593.82;;;4.94;100.00
41102;BME280;26845;50.190;19.178;2022-12-24T03:55:21;97590.27;;;4.93;100.00
41102;BME280;26845;50.190;19.178;2022-12-24T03:57:48;97596.11;;;4.89;100.00
41102;BME280;26845;50.190;19.178;2022-12-24T04:00:16;97593.64;;;4.90;100.00
41102;BME280;26845;50.190;19.178;2022-12-24T04:02:43;97598.63;;;4.88;100.00
41102;BME280;26845;50.190;19.178;2022-12-24T04:05:13;97588.12;;;4.90;100.00
41102;BME280;26845;50.190;19.178;2022-12-24T04:07:41;97589.69;;;4.94;100.00
41102;BME280;26845;50.190;19.178;2022-12-24T04:10:09;97587.27;;;4.92;100.00
41102;BME280;26845;50.190;19.178;2022-12-24T04:12:36;97588.12;;;4.90;100.00
41102;BME280;26845;50.190;19.178;2022-12-24T04:15:05;97588.12;;;4.90;100.00
41102;BME280;26845;50.190;19.178;2022-12-24T04:17:33;97597.20;;;4.91;100.00
41102;BME280;26845;50.190;19.178;2022-12-24T04:19:59;97595.30;;;4.89;100.00
41102;BME280;26845;50.190;19.178;2022-12-24T04:22:26;97601.89;;;4.90;100.00
41102;BME280;26845;50.190;19.178;2022-12-24T04:24:53;97593.98;;;4.86;100.00
41102;BME280;26845;50.190;19.178;2022-12-24T04:27:20;97591.39;;;4.92;100.00
41102;BME280;26845;50.190;19.178;2022-12-24T04:29:47;97587.45;;;4.96;100.00
41102;BME280;26845;50.190;19.178;2022-12-24T04:32:14;97586.59;;;4.98;100.00
41102;BME280;26845;50.190;19.178;2022-12-24T04:34:41;97590.96;;;4.99;100.00
41102;BME280;26845;50.190;19.178;2022-12-24T04:37:10;97590.45;;;4.97;100.00
41102;BME280;26845;50.190;19.178;2022-12-24T04:39:38;97592.69;;;4.95;100.00
41102;BME280;26845;50.190;19.178;2022-12-24T04:42:05;97598.52;;;4.93;100.00
41102;BME280;26845;50.190;19.178;2022-12-24T04:44:35;97589.94;;;4.95;100.00
41102;BME280;26845;50.190;19.178;2022-12-24T04:47:01;97591.13;;;4.91;100.00
41102;BME280;26845;50.190;19.178;2022-12-24T04:49:28;97594.69;;;4.92;100.00
41102;BME280;26845;50.190;19.178;2022-12-24T04:51:55;97596.91;;;4.92;100.00
41102;BME280;26845;50.190;19.178;2022-12-24T04:54:22;97600.95;;;4.95;100.00
41102;BME280;26845;50.190;19.178;2022-12-24T04:56:49;97599.27;;;4.96;100.00
41102;BME280;26845;50.190;19.178;2022-12-24T04:59:15;97602.33;;;4.95;100.00
41102;BME280;26845;50.190;19.178;2022-12-24T05:01:42;97601.41;;;5.00;100.00
41102;BME280;26845;50.190;19.178;2022-12-24T05:04:09;97607.48;;;4.99;100.00
41102;BME280;26845;50.190;19.178;2022-12-24T05:06:36;97597.80;;;5.02;100.00
41102;BME280;26845;50.190;19.178;2022-12-24T05:09:03;97595.33;;;5.00;100.00
41102;BME280;26845;50.190;19.178;2022-12-24T05:11:30;97592.34;;;4.99;100.00
41102;BME280;26845;50.190;19.178;2022-12-24T05:13:57;97603.87;;;5.01;100.00
41102;BME280;26845;50.190;19.178;2022-12-24T05:16:24;97612.42;;;5.00;100.00
41102;BME280;26845;50.190;19.178;2022-12-24T05:18:53;97606.40;;;4.98;100.00
41102;BME280;26845;50.190;19.178;2022-12-24T05:21:23;97606.97;;;4.97;100.00
41102;BME280;26845;50.190;19.178;2022-12-24T05:23:50;97611.61;;;4.99;100.00
41102;BME280;26845;50.190;19.178;2022-12-24T05:26:57;97611.38;;;4.98;100.00
41102;BME280;26845;50.190;19.178;2022-12-24T05:29:22;97619.36;;;4.97;100.00
41102;BME280;26845;50.190;19.178;2022-12-24T05:31:50;97619.36;;;4.97;100.00
41102;BME280;26845;50.190;19.178;2022-12-24T05:34:16;97617.23;;;4.94;100.00
41102;BME280;26845;50.190;19.178;2022-12-24T05:36:44;97630.23;;;4.91;100.00
41102;BME280;26845;50.190;19.178;2022-12-24T05:39:16;97628.86;;;4.91;100.00
41102;BME280;26845;50.190;19.178;2022-12-24T05:41:44;97625.95;;;4.99;100.00
41102;BME280;26845;50.190;19.178;2022-12-24T05:44:11;97621.49;;;5.00;100.00
41102;BME280;26845;50.190;19.178;2022-12-24T05:46:41;97624.44;;;5.04;100.00
41102;BME280;26845;50.190;19.178;2022-12-24T05:49:09;97626.38;;;5.03;100.00
41102;BME280;26845;50.190;19.178;2022-12-24T05:51:36;97626.70;;;5.02;100.00
41102;BME280;26845;50.190;19.178;2022-12-24T05:54:02;97626.70;;;5.02;100.00
41102;BME280;26845;50.190;19.178;2022-12-24T05:56:29;97630.65;;;4.98;100.00
41102;BME280;26845;50.190;19.178;2022-12-24T05:58:56;97623.68;;;5.01;100.00
41102;BME280;26845;50.190;19.178;2022-12-24T06:01:24;97625.38;;;4.99;100.00
41102;BME280;26845;50.190;19.178;2022-12-24T06:03:51;97628.19;;;4.96;100.00
41102;BME280;26845;50.190;19.178;2022-12-24T06:06:21;97635.94;;;4.94;100.00
41102;BME280;26845;50.190;19.178;2022-12-24T06:08:50;97635.23;;;4.89;100.00
41102;BME280;26845;50.190;19.178;2022-12-24T06:11:25;97632.48;;;4.89;100.00
41102;BME280;26845;50.190;19.178;2022-12-24T06:13:49;97633.91;;;4.86;100.00
41102;BME280;26845;50.190;19.178;2022-12-24T06:16:18;97646.30;;;4.86;100.00
41102;BME280;26845;50.190;19.178;2022-12-24T06:18:46;97648.51;;;4.87;100.00
41102;BME280;26845;50.190;19.178;2022-12-24T06:21:14;97650.64;;;4.90;100.00
41102;BME280;26845;50.190;19.178;2022-12-24T06:23:42;97655.16;;;4.97;100.00
41102;BME280;26845;50.190;19.178;2022-12-24T06:26:13;97659.66;;;4.93;100.00
41102;BME280;26845;50.190;19.178;2022-12-24T06:28:42;97659.61;;;4.95;100.00
41102;BME280;26845;50.190;19.178;2022-12-24T06:31:14;97663.74;;;4.95;100.00
41102;BME280;26845;50.190;19.178;2022-12-24T06:33:44;97665.06;;;4.98;100.00
41102;BME280;26845;50.190;19.178;2022-12-24T06:36:14;97670.01;;;4.99;100.00
41102;BME280;26845;50.190;19.178;2022-12-24T06:38:43;97663.83;;;5.04;100.00
41102;BME280;26845;50.190;19.178;2022-12-24T06:41:13;97668.09;;;5.10;100.00
41102;BME280;26845;50.190;19.178;2022-12-24T06:43:43;97676.61;;;5.11;100.00
41102;BME280;26845;50.190;19.178;2022-12-24T06:46:13;97673.80;;;5.14;100.00
41102;BME280;26845;50.190;19.178;2022-12-24T06:48:42;97679.55;;;5.15;100.00
41102;BME280;26845;50.190;19.178;2022-12-24T06:51:12;97681.20;;;5.16;100.00
41102;BME280;26845;50.190;19.178;2022-12-24T06:53:39;97682.20;;;5.20;100.00
41102;BME280;26845;50.190;19.178;2022-12-24T06:56:09;97687.66;;;5.23;100.00
41102;BME280;26845;50.190;19.178;2022-12-24T06:58:36;97690.98;;;5.22;100.00
41102;BME280;26845;50.190;19.178;2022-12-24T07:01:07;97695.97;;;5.20;100.00
41102;BME280;26845;50.190;19.178;2022-12-24T07:03:35;97691.65;;;5.16;100.00
41102;BME280;26845;50.190;19.178;2022-12-24T07:06:03;97694.70;;;5.15;100.00
41102;BME280;26845;50.190;19.178;2022-12-24T07:08:30;97695.22;;;5.17;100.00
41102;BME280;26845;50.190;19.178;2022-12-24T07:11:01;97701.81;;;5.18;100.00
41102;BME280;26845;50.190;19.178;2022-12-24T07:13:29;97699.24;;;5.22;100.00
41102;BME280;26845;50.190;19.178;2022-12-24T07:16:00;97706.94;;;5.23;100.00
41102;BME280;26845;50.190;19.178;2022-12-24T07:18:29;97708.22;;;5.28;100.00
41102;BME280;26845;50.190;19.178;2022-12-24T07:20:58;97708.45;;;5.29;100.00
41102;BME280;26845;50.190;19.178;2022-12-24T07:23:25;97709.59;;;5.28;100.00
41102;BME280;26845;50.190;19.178;2022-12-24T07:25:52;97723.17;;;5.24;100.00
41102;BME280;26845;50.190;19.178;2022-12-24T07:28:19;97720.91;;;5.26;100.00
41102;BME280;26845;50.190;19.178;2022-12-24T07:30:47;97718.66;;;5.28;100.00
41102;BME280;26845;50.190;19.178;2022-12-24T07:33:13;97727.13;;;5.32;100.00
41102;BME280;26845;50.190;19.178;2022-12-24T07:35:40;97731.58;;;5.30;100.00
41102;BME280;26845;50.190;19.178;2022-12-24T07:38:09;97729.25;;;5.35;100.00
41102;BME280;26845;50.190;19.178;2022-12-24T07:40:36;97728.20;;;5.33;100.00
41102;BME280;26845;50.190;19.178;2022-12-24T07:43:03;97738.66;;;5.34;100.00
41102;BME280;26845;50.190;19.178;2022-12-24T07:45:30;97737.17;;;5.39;100.00
41102;BME280;26845;50.190;19.178;2022-12-24T07:47:57;97740.39;;;5.44;100.00
41102;BME280;26845;50.190;19.178;2022-12-24T07:50:24;97741.77;;;5.44;100.00
41102;BME280;26845;50.190;19.178;2022-12-24T07:52:51;97755.14;;;5.36;100.00
41102;BME280;26845;50.190;19.178;2022-12-24T07:55:18;97748.25;;;5.36;100.00
41102;BME280;26845;50.190;19.178;2022-12-24T07:57:45;97757.22;;;5.42;100.00
41102;BME280;26845;50.190;19.178;2022-12-24T08:00:12;97757.69;;;5.47;100.00
41102;BME280;26845;50.190;19.178;2022-12-24T08:02:39;97767.87;;;5.46;100.00
41102;BME280;26845;50.190;19.178;2022-12-24T08:05:08;97769.41;;;5.52;100.00
41102;BME280;26845;50.190;19.178;2022-12-24T08:07:35;97764.95;;;5.54;100.00
41102;BME280;26845;50.190;19.178;2022-12-24T08:10:03;97774.31;;;5.55;100.00
41102;BME280;26845;50.190;19.178;2022-12-24T08:12:30;97771.90;;;5.51;100.00
41102;BME280;26845;50.190;19.178;2022-12-24T08:14:57;97768.80;;;5.55;100.00
41102;BME280;26845;50.190;19.178;2022-12-24T08:17:24;97773.47;;;5.55;100.00
41102;BME280;26845;50.190;19.178;2022-12-24T08:19:51;97764.34;;;5.57;100.00
41102;BME280;26845;50.190;19.178;2022-12-24T08:22:17;97776.39;;;5.61;100.00
41102;BME280;26845;50.190;19.178;2022-12-24T08:24:44;97767.74;;;5.65;100.00
41102;BME280;26845;50.190;19.178;2022-12-24T08:27:11;97777.34;;;5.68;100.00
41102;BME280;26845;50.190;19.178;2022-12-24T08:29:38;97775.63;;;5.69;100.00
41102;BME280;26845;50.190;19.178;2022-12-24T08:32:05;97776.15;;;5.71;100.00
41102;BME280;26845;50.190;19.178;2022-12-24T08:34:32;97775.52;;;5.74;100.00
41102;BME280;26845;50.190;19.178;2022-12-24T08:36:59;97779.04;;;5.77;100.00
41102;BME280;26845;50.190;19.178;2022-12-24T08:39:25;97792.77;;;5.80;100.00
41102;BME280;26845;50.190;19.178;2022-12-24T08:41:52;97796.55;;;5.84;100.00
41102;BME280;26845;50.190;19.178;2022-12-24T08:44:19;97804.50;;;5.85;100.00
41102;BME280;26845;50.190;19.178;2022-12-24T08:46:46;97806.39;;;5.88;100.00
41102;BME280;26845;50.190;19.178;2022-12-24T08:49:13;97802.98;;;5.93;100.00
41102;BME280;26845;50.190;19.178;2022-12-24T08:51:40;97809.83;;;5.96;100.00
41102;BME280;26845;50.190;19.178;2022-12-24T08:54:07;97811.50;;;5.94;100.00
41102;BME280;26845;50.190;19.178;2022-12-24T08:56:34;97809.45;;;6.00;100.00
41102;BME280;26845;50.190;19.178;2022-12-24T08:59:01;97809.77;;;5.98;100.00
41102;BME280;26845;50.190;19.178;2022-12-24T09:01:27;97811.85;;;6.04;100.00
41102;BME280;26845;50.190;19.178;2022-12-24T09:03:54;97814.04;;;6.04;100.00
41102;BME280;26845;50.190;19.178;2022-12-24T09:06:21;97813.92;;;6.10;100.00
41102;BME280;26845;50.190;19.178;2022-12-24T09:08:49;97826.47;;;6.16;100.00
41102;BME280;26845;50.190;19.178;2022-12-24T09:11:17;97834.18;;;6.16;100.00
41102;BME280;26845;50.190;19.178;2022-12-24T09:13:45;97835.39;;;6.24;100.00
41102;BME280;26845;50.190;19.178;2022-12-24T09:16:12;97829.36;;;6.22;100.00
41102;BME280;26845;50.190;19.178;2022-12-24T09:18:40;97831.61;;;6.20;100.00
41102;BME280;26845;50.190;19.178;2022-12-24T09:21:10;97830.05;;;6.27;100.00
41102;BME280;26845;50.190;19.178;2022-12-24T09:23:44;97839.41;;;6.29;100.00
41102;BME280;26845;50.190;19.178;2022-12-24T09:28:50;97845.47;;;6.28;100.00
41102;BME280;26845;50.190;19.178;2022-12-24T09:31:18;97844.66;;;6.28;100.00
41102;BME280;26845;50.190;19.178;2022-12-24T09:33:46;97844.42;;;6.27;100.00
41102;BME280;26845;50.190;19.178;2022-12-24T09:36:16;97832.24;;;6.28;100.00
41102;BME280;26845;50.190;19.178;2022-12-24T09:38:44;97848.74;;;6.30;100.00
41102;BME280;26845;50.190;19.178;2022-12-24T09:41:14;97844.36;;;6.29;100.00
41102;BME280;26845;50.190;19.178;2022-12-24T09:43:45;97844.79;;;6.34;100.00
41102;BME280;26845;50.190;19.178;2022-12-24T09:46:27;97843.68;;;6.35;100.00
41102;BME280;26845;50.190;19.178;2022-12-24T09:49:00;97853.77;;;6.40;100.00
41102;BME280;26845;50.190;19.178;2022-12-24T09:54:30;97858.23;;;6.49;100.00
41102;BME280;26845;50.190;19.178;2022-12-24T09:57:07;97858.13;;;6.55;100.00
41102;BME280;26845;50.190;19.178;2022-12-24T09:59:41;97860.49;;;6.59;100.00
41102;BME280;26845;50.190;19.178;2022-12-24T10:02:17;97859.56;;;6.63;100.00
41102;BME280;26845;50.190;19.178;2022-12-24T10:04:42;97858.66;;;6.65;100.00
41102;BME280;26845;50.190;19.178;2022-12-24T10:07:19;97871.54;;;6.70;100.00
41102;BME280;26845;50.190;19.178;2022-12-24T10:10:05;97868.39;;;6.74;100.00
41102;BME280;26845;50.190;19.178;2022-12-24T10:15:39;97884.59;;;6.78;100.00
41102;BME280;26845;50.190;19.178;2022-12-24T10:18:40;97897.14;;;6.84;100.00
41102;BME280;26845;50.190;19.178;2022-12-24T10:21:34;97898.52;;;6.84;100.00
41102;BME280;26845;50.190;19.178;2022-12-24T10:29:24;97915.16;;;6.93;100.00
41102;BME280;26845;50.190;19.178;2022-12-24T10:32:43;97912.39;;;6.93;100.00
41102;BME280;26845;50.190;19.178;2022-12-24T10:34:58;97923.32;;;6.98;100.00
41102;BME280;26845;50.190;19.178;2022-12-24T10:37:30;97915.09;;;6.95;100.00
41102;BME280;26845;50.190;19.178;2022-12-24T10:39:59;97923.95;;;6.95;100.00
41102;BME280;26845;50.190;19.178;2022-12-24T10:42:39;97923.20;;;6.92;100.00
41102;BME280;26845;50.190;19.178;2022-12-24T10:45:15;97924.31;;;6.91;100.00
41102;BME280;26845;50.190;19.178;2022-12-24T10:47:45;97936.38;;;6.95;100.00
41102;BME280;26845;50.190;19.178;2022-12-24T10:50:40;97934.25;;;6.92;100.00
41102;BME280;26845;50.190;19.178;2022-12-24T10:53:24;97931.61;;;6.87;100.00
41102;BME280;26845;50.190;19.178;2022-12-24T10:56:06;97936.63;;;6.85;100.00
41102;BME280;26845;50.190;19.178;2022-12-24T10:58:30;97927.41;;;6.89;100.00
41102;BME280;26845;50.190;19.178;2022-12-24T11:00:57;97943.92;;;6.92;100.00
41102;BME280;26845;50.190;19.178;2022-12-24T11:03:30;97957.85;;;6.87;100.00
41102;BME280;26845;50.190;19.178;2022-12-24T11:08:42;97960.73;;;6.82;100.00
41102;BME280;26845;50.190;19.178;2022-12-24T11:11:12;97973.21;;;6.79;100.00
41102;BME280;26845;50.190;19.178;2022-12-24T11:16:27;97977.28;;;6.70;100.00
41102;BME280;26845;50.190;19.178;2022-12-24T11:18:56;97985.38;;;6.67;100.00
41102;BME280;26845;50.190;19.178;2022-12-24T11:21:30;97984.92;;;6.62;100.00
41102;BME280;26845;50.190;19.178;2022-12-24T11:26:42;97985.55;;;6.59;100.00
41102;BME280;26845;50.190;19.178;2022-12-24T11:29:24;97985.12;;;6.55;100.00
41102;BME280;26845;50.190;19.178;2022-12-24T11:32:14;97987.94;;;6.52;100.00
41102;BME280;26845;50.190;19.178;2022-12-24T11:34:45;97993.51;;;6.49;100.00
41102;BME280;26845;50.190;19.178;2022-12-24T11:37:23;98004.22;;;6.51;100.00
41102;BME280;26845;50.190;19.178;2022-12-24T11:39:55;98000.89;;;6.51;100.00
41102;BME280;26845;50.190;19.178;2022-12-24T11:42:33;98001.84;;;6.47;100.00
41102;BME280;26845;50.190;19.178;2022-12-24T11:45:13;98004.14;;;6.42;100.00
41102;BME280;26845;50.190;19.178;2022-12-24T11:47:43;98009.66;;;6.42;100.00
41102;BME280;26845;50.190;19.178;2022-12-24T11:53:04;98020.50;;;6.39;100.00
41102;BME280;26845;50.190;19.178;2022-12-24T11:55:56;98030.69;;;6.41;100.00
41102;BME280;26845;50.190;19.178;2022-12-24T12:03:56;98046.15;;;6.53;100.00
41102;BME280;26845;50.190;19.178;2022-12-24T12:06:47;98055.88;;;6.75;100.00
41102;BME280;26845;50.190;19.178;2022-12-24T12:09:27;98052.41;;;6.95;100.00
41102;BME280;26845;50.190;19.178;2022-12-24T12:12:08;98046.52;;;7.10;100.00
41102;BME280;26845;50.190;19.178;2022-12-24T12:14:44;98054.25;;;7.22;100.00
41102;BME280;26845;50.190;19.178;2022-12-24T12:20:29;98057.72;;;7.39;100.00
41102;BME280;26845;50.190;19.178;2022-12-24T12:25:59;98068.14;;;7.53;100.00
41102;BME280;26845;50.190;19.178;2022-12-24T12:36:50;98093.60;;;7.64;100.00
41102;BME280;26845;50.190;19.178;2022-12-24T12:39:20;98104.97;;;7.62;100.00
41102;BME280;26845;50.190;19.178;2022-12-24T12:59:12;98110.95;;;7.78;100.00
41102;BME280;26845;50.190;19.178;2022-12-24T13:04:35;98130.30;;;7.89;100.00
41102;BME280;26845;50.190;19.178;2022-12-24T13:19:16;98160.56;;;7.97;100.00
41102;BME280;26845;50.190;19.178;2022-12-24T13:21:46;98176.08;;;7.96;100.00
41102;BME280;26845;50.190;19.178;2022-12-24T13:24:20;98183.62;;;7.93;100.00
41102;BME280;26845;50.190;19.178;2022-12-24T13:30:05;98174.13;;;7.96;100.00
41102;BME280;26845;50.190;19.178;2022-12-24T13:32:53;98180.23;;;7.96;100.00
41102;BME280;26845;50.190;19.178;2022-12-24T13:37:52;98187.14;;;7.96;100.00
41102;BME280;26845;50.190;19.178;2022-12-24T13:40:25;98195.45;;;7.96;100.00
41102;BME280;26845;50.190;19.178;2022-12-24T13:50:55;98215.20;;;7.80;100.00
41102;BME280;26845;50.190;19.178;2022-12-24T13:53:36;98212.78;;;7.76;100.00
41102;BME280;26845;50.190;19.178;2022-12-24T13:58:47;98228.33;;;7.75;100.00
41102;BME280;26845;50.190;19.178;2022-12-24T14:01:20;98235.59;;;7.71;100.00
41102;BME280;26845;50.190;19.178;2022-12-24T14:03:54;98239.50;;;7.70;100.00
41102;BME280;26845;50.190;19.178;2022-12-24T14:06:29;98246.77;;;7.65;100.00
41102;BME280;26845;50.190;19.178;2022-12-24T14:09:11;98246.28;;;7.63;100.00
41102;BME280;26845;50.190;19.178;2022-12-24T14:14:35;98251.01;;;7.63;100.00
41102;BME280;26845;50.190;19.178;2022-12-24T14:17:25;98261.80;;;7.62;100.00
41102;BME280;26845;50.190;19.178;2022-12-24T14:19:58;98267.89;;;7.61;100.00
41102;BME280;26845;50.190;19.178;2022-12-24T14:22:38;98278.72;;;7.60;100.00
41102;BME280;26845;50.190;19.178;2022-12-24T14:25:19;98282.30;;;7.61;100.00
41102;BME280;26845;50.190;19.178;2022-12-24T14:27:59;98291.92;;;7.63;100.00
41102;BME280;26845;50.190;19.178;2022-12-24T14:30:33;98294.36;;;7.65;100.00
41102;BME280;26845;50.190;19.178;2022-12-24T14:33:00;98291.35;;;7.64;100.00
41102;BME280;26845;50.190;19.178;2022-12-24T14:35:36;98303.55;;;7.63;100.00
41102;BME280;26845;50.190;19.178;2022-12-24T14:38:14;98298.31;;;7.61;100.00
41102;BME280;26845;50.190;19.178;2022-12-24T14:46:59;98322.97;;;7.60;100.00
41102;BME280;26845;50.190;19.178;2022-12-24T14:49:57;98319.11;;;7.59;100.00
41102;BME280;26845;50.190;19.178;2022-12-24T14:52:34;98326.30;;;7.60;100.00
41102;BME280;26845;50.190;19.178;2022-12-24T14:55:35;98327.41;;;7.59;100.00
41102;BME280;26845;50.190;19.178;2022-12-24T15:00:59;98338.18;;;7.60;100.00
41102;BME280;26845;50.190;19.178;2022-12-24T15:06:49;98350.49;;;7.65;100.00
41102;BME280;26845;50.190;19.178;2022-12-24T15:09:29;98353.26;;;7.65;100.00
41102;BME280;26845;50.190;19.178;2022-12-24T15:11:59;98361.31;;;7.64;100.00
41102;BME280;26845;50.190;19.178;2022-12-24T15:14:29;98356.34;;;7.64;100.00
41102;BME280;26845;50.190;19.178;2022-12-24T15:17:04;98368.55;;;7.63;100.00
41102;BME280;26845;50.190;19.178;2022-12-24T15:19:38;98361.64;;;7.63;100.00
41102;BME280;26845;50.190;19.178;2022-12-24T15:22:11;98369.66;;;7.62;100.00
41102;BME280;26845;50.190;19.178;2022-12-24T15:24:46;98375.23;;;7.59;100.00
41102;BME280;26845;50.190;19.178;2022-12-24T15:27:19;98378.63;;;7.56;100.00
41102;BME280;26845;50.190;19.178;2022-12-24T15:29:55;98375.28;;;7.57;100.00
41102;BME280;26845;50.190;19.178;2022-12-24T15:32:22;98384.43;;;7.57;100.00
41102;BME280;26845;50.190;19.178;2022-12-24T15:34:52;98386.72;;;7.53;100.00